sensor_id;sensor_type;location;lat;lon;timestamp;P1;durP1;ratioP1;P2;durP2;ratioP2
27071;SDS011;14613;46.308;25.288;2022-09-09T00:04:47;14.90;;;8.53;;
27071;SDS011;14613;46.308;25.288;2022-09-09T00:18:22;12.60;;;8.40;;
27071;SDS011;14613;46.308;25.288;2022-09-09T00:21:11;10.33;;;8.03;;
27071;SDS011;14613;46.308;25.288;2022-09-09T00:23:53;9.50;;;7.70;;
27071;SDS011;14613;46.308;25.288;2022-09-09T00:31:54;11.87;;;7.83;;
27071;SDS011;14613;46.308;25.288;2022-09-09T00:34:24;11.93;;;8.57;;
27071;SDS011;14613;46.308;25.288;2022-09-09T00:36:52;12.30;;;8.57;;
27071;SDS011;14613;46.308;25.288;2022-09-09T00:39:25;16.93;;;8.63;;
27071;SDS011;14613;46.308;25.288;2022-09-09T00:44:53;9.13;;;7.50;;
27071;SDS011;14613;46.308;25.288;2022-09-09T00:55:11;12.30;;;8.67;;
27071;SDS011;14613;46.308;25.288;2022-09-09T00:57:40;13.50;;;8.63;;
27071;SDS011;14613;46.308;25.288;2022-09-09T01:00:17;17.00;;;8.77;;
27071;SDS011;14613;46.308;25.288;2022-09-09T01:06:29;9.93;;;8.07;;
27071;SDS011;14613;46.308;25.288;2022-09-09T01:14:35;12.70;;;7.87;;
27071;SDS011;14613;46.308;25.288;2022-09-09T01:25:09;20.67;;;8.60;;
27071;SDS011;14613;46.308;25.288;2022-09-09T01:27:46;14.33;;;9.17;;
27071;SDS011;14613;46.308;25.288;2022-09-09T01:30:15;16.23;;;9.83;;
27071;SDS011;14613;46.308;25.288;2022-09-09T01:32:43;8.30;;;7.40;;
27071;SDS011;14613;46.308;25.288;2022-09-09T01:35:12;9.33;;;7.53;;
27071;SDS011;14613;46.308;25.288;2022-09-09T01:37:48;12.77;;;7.67;;
27071;SDS011;14613;46.308;25.288;2022-09-09T01:40:13;12.73;;;8.03;;
27071;SDS011;14613;46.308;25.288;2022-09-09T01:42:39;10.87;;;7.43;;
27071;SDS011;14613;46.308;25.288;2022-09-09T01:45:05;14.07;;;8.03;;
27071;SDS011;14613;46.308;25.288;2022-09-09T01:47:32;11.63;;;8.03;;
27071;SDS011;14613;46.308;25.288;2022-09-09T01:49:57;12.57;;;8.20;;
27071;SDS011;14613;46.308;25.288;2022-09-09T01:52:24;11.17;;;8.67;;
27071;SDS011;14613;46.308;25.288;2022-09-09T01:54:50;13.77;;;8.13;;
27071;SDS011;14613;46.308;25.288;2022-09-09T01:57:23;11.70;;;8.67;;
27071;SDS011;14613;46.308;25.288;2022-09-09T02:08:41;15.53;;;8.40;;
27071;SDS011;14613;46.308;25.288;2022-09-09T02:11:18;11.63;;;7.63;;
27071;SDS011;14613;46.308;25.288;2022-09-09T02:13:47;11.43;;;8.90;;
27071;SDS011;14613;46.308;25.288;2022-09-09T02:16:23;12.47;;;8.33;;
27071;SDS011;14613;46.308;25.288;2022-09-09T02:19:00;12.73;;;8.50;;
27071;SDS011;14613;46.308;25.288;2022-09-09T02:21:38;15.77;;;8.60;;
27071;SDS011;14613;46.308;25.288;2022-09-09T02:24:06;15.83;;;8.60;;
27071;SDS011;14613;46.308;25.288;2022-09-09T02:26:35;15.87;;;9.60;;
27071;SDS011;14613;46.308;25.288;2022-09-09T02:29:06;14.47;;;9.20;;
27071;SDS011;14613;46.308;25.288;2022-09-09T02:31:36;22.03;;;9.57;;
27071;SDS011;14613;46.308;25.288;2022-09-09T02:34:03;12.03;;;9.73;;
27071;SDS011;14613;46.308;25.288;2022-09-09T02:36:33;15.93;;;9.30;;
27071;SDS011;14613;46.308;25.288;2022-09-09T02:39:01;13.93;;;9.77;;
27071;SDS011;14613;46.308;25.288;2022-09-09T02:41:31;14.83;;;9.17;;
27071;SDS011;14613;46.308;25.288;2022-09-09T02:43:59;15.20;;;9.67;;
27071;SDS011;14613;46.308;25.288;2022-09-09T02:52:04;11.27;;;7.83;;
27071;SDS011;14613;46.308;25.288;2022-09-09T02:54:39;11.10;;;8.90;;
27071;SDS011;14613;46.308;25.288;2022-09-09T02:59:35;15.03;;;9.60;;
27071;SDS011;14613;46.308;25.288;2022-09-09T03:02:01;18.53;;;10.23;;
27071;SDS011;14613;46.308;25.288;2022-09-09T03:04:28;17.67;;;10.07;;
27071;SDS011;14613;46.308;25.288;2022-09-09T03:06:55;20.17;;;11.87;;
27071;SDS011;14613;46.308;25.288;2022-09-09T03:09:21;23.67;;;14.60;;
27071;SDS011;14613;46.308;25.288;2022-09-09T03:11:46;22.50;;;14.83;;
27071;SDS011;14613;46.308;25.288;2022-09-09T03:14:12;13.93;;;10.87;;
27071;SDS011;14613;46.308;25.288;2022-09-09T03:16:38;22.80;;;10.20;;
27071;SDS011;14613;46.308;25.288;2022-09-09T03:19:03;13.50;;;9.97;;
27071;SDS011;14613;46.308;25.288;2022-09-09T03:21:29;15.00;;;11.03;;
27071;SDS011;14613;46.308;25.288;2022-09-09T03:23:55;17.40;;;11.90;;
27071;SDS011;14613;46.308;25.288;2022-09-09T03:26:22;15.10;;;11.33;;
27071;SDS011;14613;46.308;25.288;2022-09-09T03:28:48;13.53;;;9.10;;
27071;SDS011;14613;46.308;25.288;2022-09-09T03:31:14;13.13;;;9.17;;
27071;SDS011;14613;46.308;25.288;2022-09-09T03:33:40;13.67;;;8.60;;
27071;SDS011;14613;46.308;25.288;2022-09-09T03:36:06;9.60;;;7.87;;
27071;SDS011;14613;46.308;25.288;2022-09-09T03:38:33;13.20;;;8.80;;
27071;SDS011;14613;46.308;25.288;2022-09-09T03:40:59;16.20;;;9.23;;
27071;SDS011;14613;46.308;25.288;2022-09-09T03:43:26;11.57;;;8.90;;
27071;SDS011;14613;46.308;25.288;2022-09-09T03:45:54;11.93;;;8.80;;
27071;SDS011;14613;46.308;25.288;2022-09-09T03:48:23;12.87;;;8.57;;
27071;SDS011;14613;46.308;25.288;2022-09-09T03:50:50;21.10;;;8.90;;
27071;SDS011;14613;46.308;25.288;2022-09-09T03:53:18;17.37;;;9.13;;
27071;SDS011;14613;46.308;25.288;2022-09-09T03:55:46;14.23;;;9.00;;
27071;SDS011;14613;46.308;25.288;2022-09-09T03:58:15;18.10;;;9.43;;
27071;SDS011;14613;46.308;25.288;2022-09-09T04:00:43;18.07;;;9.27;;
27071;SDS011;14613;46.308;25.288;2022-09-09T04:03:18;11.77;;;9.03;;
27071;SDS011;14613;46.308;25.288;2022-09-09T04:05:44;12.57;;;9.23;;
27071;SDS011;14613;46.308;25.288;2022-09-09T04:08:09;11.87;;;8.27;;
27071;SDS011;14613;46.308;25.288;2022-09-09T04:10:36;12.57;;;8.60;;
27071;SDS011;14613;46.308;25.288;2022-09-09T04:13:03;15.00;;;10.30;;
27071;SDS011;14613;46.308;25.288;2022-09-09T04:15:30;26.83;;;10.63;;
27071;SDS011;14613;46.308;25.288;2022-09-09T04:17:56;14.17;;;9.63;;
27071;SDS011;14613;46.308;25.288;2022-09-09T04:20:21;16.63;;;9.40;;
27071;SDS011;14613;46.308;25.288;2022-09-09T04:22:47;18.53;;;10.40;;
27071;SDS011;14613;46.308;25.288;2022-09-09T04:25:13;21.50;;;10.03;;
27071;SDS011;14613;46.308;25.288;2022-09-09T04:27:39;18.50;;;9.73;;
27071;SDS011;14613;46.308;25.288;2022-09-09T04:30:05;22.57;;;10.33;;
27071;SDS011;14613;46.308;25.288;2022-09-09T04:32:34;14.30;;;10.33;;
27071;SDS011;14613;46.308;25.288;2022-09-09T04:35:02;28.23;;;10.33;;
27071;SDS011;14613;46.308;25.288;2022-09-09T04:37:28;19.13;;;10.10;;
27071;SDS011;14613;46.308;25.288;2022-09-09T04:39:54;15.27;;;10.20;;
27071;SDS011;14613;46.308;25.288;2022-09-09T04:42:19;22.77;;;9.97;;
27071;SDS011;14613;46.308;25.288;2022-09-09T04:44:45;19.97;;;9.20;;
27071;SDS011;14613;46.308;25.288;2022-09-09T04:47:11;11.53;;;8.03;;
27071;SDS011;14613;46.308;25.288;2022-09-09T04:49:37;13.90;;;8.93;;
27071;SDS011;14613;46.308;25.288;2022-09-09T04:52:03;19.40;;;8.80;;
27071;SDS011;14613;46.308;25.288;2022-09-09T04:54:29;14.23;;;8.47;;
27071;SDS011;14613;46.308;25.288;2022-09-09T04:56:55;17.30;;;9.77;;
27071;SDS011;14613;46.308;25.288;2022-09-09T04:59:21;14.10;;;9.93;;
27071;SDS011;14613;46.308;25.288;2022-09-09T05:01:48;11.18;;;8.48;;
27071;SDS011;14613;46.308;25.288;2022-09-09T05:04:15;17.27;;;8.27;;
27071;SDS011;14613;46.308;25.288;2022-09-09T05:06:41;12.90;;;8.87;;
27071;SDS011;14613;46.308;25.288;2022-09-09T05:09:07;21.47;;;9.27;;
27071;SDS011;14613;46.308;25.288;2022-09-09T05:11:34;17.40;;;9.83;;
27071;SDS011;14613;46.308;25.288;2022-09-09T05:14:03;19.60;;;10.53;;
27071;SDS011;14613;46.308;25.288;2022-09-09T05:16:29;22.20;;;11.87;;
27071;SDS011;14613;46.308;25.288;2022-09-09T05:18:56;29.60;;;12.77;;
27071;SDS011;14613;46.308;25.288;2022-09-09T05:21:22;20.37;;;11.63;;
27071;SDS011;14613;46.308;25.288;2022-09-09T05:23:50;25.07;;;13.30;;
27071;SDS011;14613;46.308;25.288;2022-09-09T05:26:17;33.13;;;11.80;;
27071;SDS011;14613;46.308;25.288;2022-09-09T05:28:45;19.80;;;12.00;;
27071;SDS011;14613;46.308;25.288;2022-09-09T05:31:13;23.52;;;11.95;;
27071;SDS011;14613;46.308;25.288;2022-09-09T05:33:42;19.02;;;11.65;;
27071;SDS011;14613;46.308;25.288;2022-09-09T05:36:11;19.60;;;11.90;;
27071;SDS011;14613;46.308;25.288;2022-09-09T05:38:42;22.80;;;11.53;;
27071;SDS011;14613;46.308;25.288;2022-09-09T05:41:08;21.48;;;10.73;;
27071;SDS011;14613;46.308;25.288;2022-09-09T05:43:36;22.48;;;10.80;;
27071;SDS011;14613;46.308;25.288;2022-09-09T05:48:33;24.95;;;9.80;;
27071;SDS011;14613;46.308;25.288;2022-09-09T05:51:00;18.13;;;9.60;;
27071;SDS011;14613;46.308;25.288;2022-09-09T05:53:27;27.90;;;10.02;;
27071;SDS011;14613;46.308;25.288;2022-09-09T05:58:28;22.48;;;10.00;;
27071;SDS011;14613;46.308;25.288;2022-09-09T06:01:01;19.77;;;10.40;;
27071;SDS011;14613;46.308;25.288;2022-09-09T06:03:30;20.05;;;9.30;;
27071;SDS011;14613;46.308;25.288;2022-09-09T06:05:57;14.05;;;9.00;;
27071;SDS011;14613;46.308;25.288;2022-09-09T06:08:30;16.60;;;10.13;;
27071;SDS011;14613;46.308;25.288;2022-09-09T06:11:00;22.60;;;10.32;;
27071;SDS011;14613;46.308;25.288;2022-09-09T06:13:28;25.08;;;9.40;;
27071;SDS011;14613;46.308;25.288;2022-09-09T06:15:54;16.15;;;8.05;;
27071;SDS011;14613;46.308;25.288;2022-09-09T06:18:20;21.33;;;8.18;;
27071;SDS011;14613;46.308;25.288;2022-09-09T06:23:21;20.42;;;7.72;;
27071;SDS011;14613;46.308;25.288;2022-09-09T06:25:46;19.77;;;9.57;;
27071;SDS011;14613;46.308;25.288;2022-09-09T06:28:14;14.32;;;8.85;;
27071;SDS011;14613;46.308;25.288;2022-09-09T06:30:40;16.60;;;7.60;;
27071;SDS011;14613;46.308;25.288;2022-09-09T06:33:06;14.68;;;7.50;;
27071;SDS011;14613;46.308;25.288;2022-09-09T06:35:32;16.83;;;8.00;;
27071;SDS011;14613;46.308;25.288;2022-09-09T06:37:57;18.50;;;6.78;;
27071;SDS011;14613;46.308;25.288;2022-09-09T06:40:24;11.98;;;7.50;;
27071;SDS011;14613;46.308;25.288;2022-09-09T06:42:50;11.98;;;6.80;;
27071;SDS011;14613;46.308;25.288;2022-09-09T06:45:16;17.65;;;7.30;;
27071;SDS011;14613;46.308;25.288;2022-09-09T06:47:42;25.58;;;8.05;;
27071;SDS011;14613;46.308;25.288;2022-09-09T06:50:09;20.38;;;8.00;;
27071;SDS011;14613;46.308;25.288;2022-09-09T06:52:36;10.55;;;8.00;;
27071;SDS011;14613;46.308;25.288;2022-09-09T06:55:02;20.95;;;8.25;;
27071;SDS011;14613;46.308;25.288;2022-09-09T06:57:28;11.18;;;7.22;;
27071;SDS011;14613;46.308;25.288;2022-09-09T06:59:54;15.30;;;6.53;;
27071;SDS011;14613;46.308;25.288;2022-09-09T07:02:20;12.98;;;7.10;;
27071;SDS011;14613;46.308;25.288;2022-09-09T07:04:46;21.55;;;7.35;;
27071;SDS011;14613;46.308;25.288;2022-09-09T07:07:12;17.52;;;8.40;;
27071;SDS011;14613;46.308;25.288;2022-09-09T07:09:40;16.15;;;8.82;;
27071;SDS011;14613;46.308;25.288;2022-09-09T07:12:06;12.45;;;8.23;;
27071;SDS011;14613;46.308;25.288;2022-09-09T07:14:32;11.73;;;7.65;;
27071;SDS011;14613;46.308;25.288;2022-09-09T07:16:59;12.73;;;8.13;;
27071;SDS011;14613;46.308;25.288;2022-09-09T07:19:25;13.20;;;8.15;;
27071;SDS011;14613;46.308;25.288;2022-09-09T07:21:51;21.92;;;8.55;;
27071;SDS011;14613;46.308;25.288;2022-09-09T07:24:17;18.80;;;8.20;;
27071;SDS011;14613;46.308;25.288;2022-09-09T07:26:42;17.70;;;7.43;;
27071;SDS011;14613;46.308;25.288;2022-09-09T07:29:09;11.00;;;7.60;;
27071;SDS011;14613;46.308;25.288;2022-09-09T07:31:36;15.43;;;9.07;;
27071;SDS011;14613;46.308;25.288;2022-09-09T07:34:04;33.38;;;9.85;;
27071;SDS011;14613;46.308;25.288;2022-09-09T07:36:34;24.90;;;8.70;;
27071;SDS011;14613;46.308;25.288;2022-09-09T07:39:07;19.17;;;8.77;;
27071;SDS011;14613;46.308;25.288;2022-09-09T07:41:38;14.00;;;8.80;;
27071;SDS011;14613;46.308;25.288;2022-09-09T07:44:13;18.67;;;9.38;;
27071;SDS011;14613;46.308;25.288;2022-09-09T07:46:44;17.55;;;9.35;;
27071;SDS011;14613;46.308;25.288;2022-09-09T07:49:10;17.40;;;8.65;;
27071;SDS011;14613;46.308;25.288;2022-09-09T07:51:44;18.15;;;8.80;;
27071;SDS011;14613;46.308;25.288;2022-09-09T07:54:12;10.98;;;7.75;;
27071;SDS011;14613;46.308;25.288;2022-09-09T07:56:40;17.70;;;8.50;;
27071;SDS011;14613;46.308;25.288;2022-09-09T07:59:07;16.27;;;8.57;;
27071;SDS011;14613;46.308;25.288;2022-09-09T08:01:35;18.35;;;8.75;;
27071;SDS011;14613;46.308;25.288;2022-09-09T08:04:07;14.25;;;9.00;;
27071;SDS011;14613;46.308;25.288;2022-09-09T08:06:42;20.65;;;8.43;;
27071;SDS011;14613;46.308;25.288;2022-09-09T08:09:11;11.57;;;7.43;;
27071;SDS011;14613;46.308;25.288;2022-09-09T08:11:38;12.82;;;7.65;;
27071;SDS011;14613;46.308;25.288;2022-09-09T08:14:05;10.45;;;7.93;;
27071;SDS011;14613;46.308;25.288;2022-09-09T08:16:33;14.07;;;7.68;;
27071;SDS011;14613;46.308;25.288;2022-09-09T08:19:01;20.48;;;6.30;;
27071;SDS011;14613;46.308;25.288;2022-09-09T08:21:29;10.98;;;6.88;;
27071;SDS011;14613;46.308;25.288;2022-09-09T08:23:57;11.77;;;6.60;;
27071;SDS011;14613;46.308;25.288;2022-09-09T08:26:25;12.95;;;7.57;;
27071;SDS011;14613;46.308;25.288;2022-09-09T08:28:54;15.02;;;7.82;;
27071;SDS011;14613;46.308;25.288;2022-09-09T08:31:31;16.02;;;6.43;;
27071;SDS011;14613;46.308;25.288;2022-09-09T08:34:05;18.25;;;7.30;;
27071;SDS011;14613;46.308;25.288;2022-09-09T08:36:37;10.75;;;7.22;;
27071;SDS011;14613;46.308;25.288;2022-09-09T08:39:05;18.77;;;7.43;;
27071;SDS011;14613;46.308;25.288;2022-09-09T08:44:21;16.17;;;7.13;;
27071;SDS011;14613;46.308;25.288;2022-09-09T08:52:36;14.73;;;6.82;;
27071;SDS011;14613;46.308;25.288;2022-09-09T08:55:15;10.38;;;5.80;;
27071;SDS011;14613;46.308;25.288;2022-09-09T09:11:33;19.58;;;8.68;;
27071;SDS011;14613;46.308;25.288;2022-09-09T09:14:37;15.90;;;8.45;;
27071;SDS011;14613;46.308;25.288;2022-09-09T09:17:12;23.08;;;8.88;;
27071;SDS011;14613;46.308;25.288;2022-09-09T09:19:41;27.10;;;8.88;;
27071;SDS011;14613;46.308;25.288;2022-09-09T09:22:21;25.77;;;9.73;;
27071;SDS011;14613;46.308;25.288;2022-09-09T09:30:20;21.10;;;9.00;;
27071;SDS011;14613;46.308;25.288;2022-09-09T09:35:22;16.80;;;10.25;;
27071;SDS011;14613;46.308;25.288;2022-09-09T09:37:49;17.25;;;9.82;;
27071;SDS011;14613;46.308;25.288;2022-09-09T09:40:19;17.23;;;7.97;;
27071;SDS011;14613;46.308;25.288;2022-09-09T09:42:51;14.27;;;9.50;;
27071;SDS011;14613;46.308;25.288;2022-09-09T09:48:08;15.05;;;8.23;;
27071;SDS011;14613;46.308;25.288;2022-09-09T09:50:40;16.95;;;8.15;;
27071;SDS011;14613;46.308;25.288;2022-09-09T09:53:27;15.57;;;7.53;;
27071;SDS011;14613;46.308;25.288;2022-09-09T09:55:59;13.77;;;8.73;;
27071;SDS011;14613;46.308;25.288;2022-09-09T09:58:30;15.70;;;9.13;;
27071;SDS011;14613;46.308;25.288;2022-09-09T10:01:31;12.05;;;9.13;;
27071;SDS011;14613;46.308;25.288;2022-09-09T10:04:02;14.20;;;8.57;;
27071;SDS011;14613;46.308;25.288;2022-09-09T10:06:41;14.80;;;8.82;;
27071;SDS011;14613;46.308;25.288;2022-09-09T10:09:21;11.90;;;8.15;;
27071;SDS011;14613;46.308;25.288;2022-09-09T10:11:52;15.43;;;8.75;;
27071;SDS011;14613;46.308;25.288;2022-09-09T10:17:21;14.23;;;9.43;;
27071;SDS011;14613;46.308;25.288;2022-09-09T10:20:06;11.07;;;7.43;;
27071;SDS011;14613;46.308;25.288;2022-09-09T10:23:06;15.18;;;7.35;;
27071;SDS011;14613;46.308;25.288;2022-09-09T10:28:29;8.57;;;7.57;;
27071;SDS011;14613;46.308;25.288;2022-09-09T10:31:20;9.50;;;7.07;;
27071;SDS011;14613;46.308;25.288;2022-09-09T10:36:55;11.27;;;6.97;;
27071;SDS011;14613;46.308;25.288;2022-09-09T10:47:20;11.05;;;6.78;;
27071;SDS011;14613;46.308;25.288;2022-09-09T10:50:04;17.83;;;7.43;;
27071;SDS011;14613;46.308;25.288;2022-09-09T10:53:30;16.00;;;8.15;;
27071;SDS011;14613;46.308;25.288;2022-09-09T10:55:43;14.70;;;7.18;;
27071;SDS011;14613;46.308;25.288;2022-09-09T10:58:15;14.82;;;7.10;;
27071;SDS011;14613;46.308;25.288;2022-09-09T11:00:48;9.70;;;7.43;;
27071;SDS011;14613;46.308;25.288;2022-09-09T11:03:22;11.77;;;6.65;;
27071;SDS011;14613;46.308;25.288;2022-09-09T11:05:59;11.10;;;6.85;;
27071;SDS011;14613;46.308;25.288;2022-09-09T11:08:28;9.57;;;6.45;;
27071;SDS011;14613;46.308;25.288;2022-09-09T11:21:48;15.52;;;9.65;;
27071;SDS011;14613;46.308;25.288;2022-09-09T11:27:19;9.07;;;6.45;;
27071;SDS011;14613;46.308;25.288;2022-09-09T11:38:49;8.45;;;6.50;;
27071;SDS011;14613;46.308;25.288;2022-09-09T11:41:17;9.25;;;6.38;;
27071;SDS011;14613;46.308;25.288;2022-09-09T11:46:15;14.38;;;9.05;;
27071;SDS011;14613;46.308;25.288;2022-09-09T11:48:56;16.85;;;8.73;;
27071;SDS011;14613;46.308;25.288;2022-09-09T11:56:34;9.38;;;7.28;;
27071;SDS011;14613;46.308;25.288;2022-09-09T11:59:19;16.80;;;7.63;;
27071;SDS011;14613;46.308;25.288;2022-09-09T12:01:48;11.77;;;8.25;;
27071;SDS011;14613;46.308;25.288;2022-09-09T12:04:30;15.52;;;10.55;;
27071;SDS011;14613;46.308;25.288;2022-09-09T12:09:49;11.02;;;7.53;;
27071;SDS011;14613;46.308;25.288;2022-09-09T12:12:35;14.50;;;8.73;;
27071;SDS011;14613;46.308;25.288;2022-09-09T12:15:16;11.82;;;8.40;;
27071;SDS011;14613;46.308;25.288;2022-09-09T12:17:56;13.55;;;9.02;;
27071;SDS011;14613;46.308;25.288;2022-09-09T12:20:50;11.23;;;8.98;;
27071;SDS011;14613;46.308;25.288;2022-09-09T12:23:26;19.52;;;9.07;;
27071;SDS011;14613;46.308;25.288;2022-09-09T12:31:06;9.55;;;7.75;;
27071;SDS011;14613;46.308;25.288;2022-09-09T12:33:43;12.75;;;7.72;;
27071;SDS011;14613;46.308;25.288;2022-09-09T12:36:15;11.88;;;7.63;;
27071;SDS011;14613;46.308;25.288;2022-09-09T12:38:44;14.50;;;8.20;;
27071;SDS011;14613;46.308;25.288;2022-09-09T12:41:26;11.77;;;7.75;;
27071;SDS011;14613;46.308;25.288;2022-09-09T12:44:06;17.95;;;7.57;;
27071;SDS011;14613;46.308;25.288;2022-09-09T12:46:35;10.55;;;7.30;;
27071;SDS011;14613;46.308;25.288;2022-09-09T12:52:13;18.33;;;10.98;;
27071;SDS011;14613;46.308;25.288;2022-09-09T12:54:50;19.08;;;12.77;;
27071;SDS011;14613;46.308;25.288;2022-09-09T12:57:17;14.70;;;11.02;;
27071;SDS011;14613;46.308;25.288;2022-09-09T12:59:43;13.43;;;8.88;;
27071;SDS011;14613;46.308;25.288;2022-09-09T13:02:23;11.55;;;8.02;;
27071;SDS011;14613;46.308;25.288;2022-09-09T13:04:50;10.60;;;8.13;;
27071;SDS011;14613;46.308;25.288;2022-09-09T13:07:18;11.70;;;7.03;;
27071;SDS011;14613;46.308;25.288;2022-09-09T13:09:46;10.25;;;7.90;;
27071;SDS011;14613;46.308;25.288;2022-09-09T13:12:18;10.35;;;7.65;;
27071;SDS011;14613;46.308;25.288;2022-09-09T13:14:52;11.05;;;8.63;;
27071;SDS011;14613;46.308;25.288;2022-09-09T13:17:23;19.92;;;9.40;;
27071;SDS011;14613;46.308;25.288;2022-09-09T13:19:52;11.50;;;9.50;;
27071;SDS011;14613;46.308;25.288;2022-09-09T13:22:28;12.20;;;9.90;;
27071;SDS011;14613;46.308;25.288;2022-09-09T13:30:19;45.88;;;29.08;;
27071;SDS011;14613;46.308;25.288;2022-09-09T13:35:54;18.08;;;11.60;;
27071;SDS011;14613;46.308;25.288;2022-09-09T13:38:30;15.95;;;11.32;;
27071;SDS011;14613;46.308;25.288;2022-09-09T13:41:08;22.33;;;12.35;;
27071;SDS011;14613;46.308;25.288;2022-09-09T13:43:36;20.83;;;10.95;;
27071;SDS011;14613;46.308;25.288;2022-09-09T13:48:55;20.77;;;11.98;;
27071;SDS011;14613;46.308;25.288;2022-09-09T13:51:34;13.65;;;8.85;;
27071;SDS011;14613;46.308;25.288;2022-09-09T13:54:05;12.27;;;8.77;;
27071;SDS011;14613;46.308;25.288;2022-09-09T13:56:35;11.40;;;8.80;;
27071;SDS011;14613;46.308;25.288;2022-09-09T13:59:03;16.58;;;9.32;;
27071;SDS011;14613;46.308;25.288;2022-09-09T14:01:31;17.15;;;11.35;;
27071;SDS011;14613;46.308;25.288;2022-09-09T14:03:58;19.10;;;13.88;;
27071;SDS011;14613;46.308;25.288;2022-09-09T14:06:24;15.68;;;11.85;;
27071;SDS011;14613;46.308;25.288;2022-09-09T14:08:50;14.25;;;11.15;;
27071;SDS011;14613;46.308;25.288;2022-09-09T14:11:23;17.08;;;11.55;;
27071;SDS011;14613;46.308;25.288;2022-09-09T14:13:48;18.70;;;12.05;;
27071;SDS011;14613;46.308;25.288;2022-09-09T14:16:17;19.20;;;12.85;;
27071;SDS011;14613;46.308;25.288;2022-09-09T14:18:43;28.38;;;16.92;;
27071;SDS011;14613;46.308;25.288;2022-09-09T14:21:09;25.13;;;16.20;;
27071;SDS011;14613;46.308;25.288;2022-09-09T14:23:36;29.30;;;16.90;;
27071;SDS011;14613;46.308;25.288;2022-09-09T14:26:03;22.08;;;14.40;;
27071;SDS011;14613;46.308;25.288;2022-09-09T14:28:30;19.02;;;11.93;;
27071;SDS011;14613;46.308;25.288;2022-09-09T14:30:58;12.25;;;9.60;;
27071;SDS011;14613;46.308;25.288;2022-09-09T14:33:25;19.50;;;10.20;;
27071;SDS011;14613;46.308;25.288;2022-09-09T14:35:57;13.35;;;8.35;;
27071;SDS011;14613;46.308;25.288;2022-09-09T14:38:24;12.52;;;9.32;;
27071;SDS011;14613;46.308;25.288;2022-09-09T14:40:54;17.08;;;9.30;;
27071;SDS011;14613;46.308;25.288;2022-09-09T14:43:21;13.07;;;8.20;;
27071;SDS011;14613;46.308;25.288;2022-09-09T14:45:47;11.63;;;8.32;;
27071;SDS011;14613;46.308;25.288;2022-09-09T14:48:13;11.32;;;8.88;;
27071;SDS011;14613;46.308;25.288;2022-09-09T14:50:41;15.80;;;9.98;;
27071;SDS011;14613;46.308;25.288;2022-09-09T14:53:08;9.05;;;7.30;;
27071;SDS011;14613;46.308;25.288;2022-09-09T14:55:35;12.32;;;8.10;;
27071;SDS011;14613;46.308;25.288;2022-09-09T14:58:00;11.13;;;8.07;;
27071;SDS011;14613;46.308;25.288;2022-09-09T15:00:26;10.73;;;7.35;;
27071;SDS011;14613;46.308;25.288;2022-09-09T15:02:53;12.15;;;8.20;;
27071;SDS011;14613;46.308;25.288;2022-09-09T15:05:19;10.93;;;9.13;;
27071;SDS011;14613;46.308;25.288;2022-09-09T15:07:46;20.80;;;10.15;;
27071;SDS011;14613;46.308;25.288;2022-09-09T15:10:13;13.98;;;9.10;;
27071;SDS011;14613;46.308;25.288;2022-09-09T15:12:39;26.10;;;13.35;;
27071;SDS011;14613;46.308;25.288;2022-09-09T15:15:06;31.38;;;17.10;;
27071;SDS011;14613;46.308;25.288;2022-09-09T15:17:32;31.25;;;17.00;;
27071;SDS011;14613;46.308;25.288;2022-09-09T15:19:57;20.88;;;14.18;;
27071;SDS011;14613;46.308;25.288;2022-09-09T15:22:23;14.02;;;10.30;;
27071;SDS011;14613;46.308;25.288;2022-09-09T15:24:49;29.42;;;18.77;;
27071;SDS011;14613;46.308;25.288;2022-09-09T15:27:15;55.08;;;33.92;;
27071;SDS011;14613;46.308;25.288;2022-09-09T15:29:41;25.63;;;15.32;;
27071;SDS011;14613;46.308;25.288;2022-09-09T15:32:08;19.08;;;10.85;;
27071;SDS011;14613;46.308;25.288;2022-09-09T15:34:34;15.35;;;11.63;;
27071;SDS011;14613;46.308;25.288;2022-09-09T15:36:59;41.55;;;23.10;;
27071;SDS011;14613;46.308;25.288;2022-09-09T15:39:25;40.35;;;25.75;;
27071;SDS011;14613;46.308;25.288;2022-09-09T15:41:51;41.45;;;25.17;;
27071;SDS011;14613;46.308;25.288;2022-09-09T15:44:18;28.52;;;16.15;;
27071;SDS011;14613;46.308;25.288;2022-09-09T15:46:44;39.55;;;20.90;;
27071;SDS011;14613;46.308;25.288;2022-09-09T15:51:44;14.38;;;9.95;;
27071;SDS011;14613;46.308;25.288;2022-09-09T15:54:17;20.67;;;12.20;;
27071;SDS011;14613;46.308;25.288;2022-09-09T15:56:43;17.85;;;10.88;;
27071;SDS011;14613;46.308;25.288;2022-09-09T15:59:10;15.57;;;10.90;;
27071;SDS011;14613;46.308;25.288;2022-09-09T16:01:36;20.58;;;11.18;;
27071;SDS011;14613;46.308;25.288;2022-09-09T16:04:04;19.85;;;11.20;;
27071;SDS011;14613;46.308;25.288;2022-09-09T16:06:30;16.52;;;10.15;;
27071;SDS011;14613;46.308;25.288;2022-09-09T16:08:56;16.05;;;10.20;;
27071;SDS011;14613;46.308;25.288;2022-09-09T16:11:27;14.50;;;9.30;;
27071;SDS011;14613;46.308;25.288;2022-09-09T16:13:56;13.38;;;8.75;;
27071;SDS011;14613;46.308;25.288;2022-09-09T16:16:24;11.48;;;9.25;;
27071;SDS011;14613;46.308;25.288;2022-09-09T16:18:52;11.57;;;8.48;;
27071;SDS011;14613;46.308;25.288;2022-09-09T16:21:23;16.27;;;7.07;;
27071;SDS011;14613;46.308;25.288;2022-09-09T16:23:54;16.85;;;7.25;;
27071;SDS011;14613;46.308;25.288;2022-09-09T16:26:20;9.68;;;8.23;;
27071;SDS011;14613;46.308;25.288;2022-09-09T16:28:47;17.88;;;9.65;;
27071;SDS011;14613;46.308;25.288;2022-09-09T16:31:14;18.83;;;10.07;;
27071;SDS011;14613;46.308;25.288;2022-09-09T16:33:42;48.30;;;24.65;;
27071;SDS011;14613;46.308;25.288;2022-09-09T16:36:09;28.52;;;15.95;;
27071;SDS011;14613;46.308;25.288;2022-09-09T16:38:39;23.63;;;9.63;;
27071;SDS011;14613;46.308;25.288;2022-09-09T16:41:05;17.10;;;10.25;;
27071;SDS011;14613;46.308;25.288;2022-09-09T16:43:33;25.02;;;16.38;;
27071;SDS011;14613;46.308;25.288;2022-09-09T16:46:08;20.05;;;10.02;;
27071;SDS011;14613;46.308;25.288;2022-09-09T16:48:45;15.18;;;9.18;;
27071;SDS011;14613;46.308;25.288;2022-09-09T16:51:13;16.33;;;11.32;;
27071;SDS011;14613;46.308;25.288;2022-09-09T16:53:42;23.33;;;15.65;;
27071;SDS011;14613;46.308;25.288;2022-09-09T16:56:09;16.77;;;9.48;;
27071;SDS011;14613;46.308;25.288;2022-09-09T16:58:39;15.43;;;10.73;;
27071;SDS011;14613;46.308;25.288;2022-09-09T17:01:07;25.17;;;13.95;;
27071;SDS011;14613;46.308;25.288;2022-09-09T17:03:35;23.50;;;13.68;;
27071;SDS011;14613;46.308;25.288;2022-09-09T17:06:02;19.63;;;10.75;;
27071;SDS011;14613;46.308;25.288;2022-09-09T17:08:31;16.20;;;9.73;;
27071;SDS011;14613;46.308;25.288;2022-09-09T17:10:58;13.05;;;9.57;;
27071;SDS011;14613;46.308;25.288;2022-09-09T17:13:24;13.77;;;10.10;;
27071;SDS011;14613;46.308;25.288;2022-09-09T17:15:50;18.30;;;10.90;;
27071;SDS011;14613;46.308;25.288;2022-09-09T17:18:16;27.83;;;16.55;;
27071;SDS011;14613;46.308;25.288;2022-09-09T17:20:42;92.55;;;47.17;;
27071;SDS011;14613;46.308;25.288;2022-09-09T17:23:09;36.60;;;19.23;;
27071;SDS011;14613;46.308;25.288;2022-09-09T17:25:38;37.55;;;23.98;;
27071;SDS011;14613;46.308;25.288;2022-09-09T17:28:04;57.47;;;33.05;;
27071;SDS011;14613;46.308;25.288;2022-09-09T17:30:33;34.28;;;20.63;;